createdAt,value
2022-08-26T00:00:27.169Z,98757.56
2022-08-26T00:02:53.740Z,98759.34
2022-08-26T00:05:20.437Z,98756.44
2022-08-26T00:07:47.792Z,98755.81
2022-08-26T00:10:15.311Z,98756.38
2022-08-26T00:12:41.886Z,98748.09
2022-08-26T00:15:08.404Z,98747.03
2022-08-26T00:17:35.209Z,98749.31
2022-08-26T00:20:01.646Z,98743.44
2022-08-26T00:22:28.058Z,98745.25
2022-08-26T00:24:55.060Z,98740.81
2022-08-26T00:27:21.547Z,98742.00
2022-08-26T00:29:48.610Z,98738.47
2022-08-26T00:32:15.462Z,98737.34
2022-08-26T00:34:42.418Z,98733.59
2022-08-26T00:37:11.638Z,98734.41
2022-08-26T00:39:41.272Z,98736.56
2022-08-26T00:42:07.736Z,98729.59
2022-08-26T00:44:34.196Z,98734.59
2022-08-26T00:47:00.975Z,98734.88
2022-08-26T00:49:27.503Z,98739.41
2022-08-26T00:51:56.102Z,98733.69
2022-08-26T00:54:22.894Z,98736.78
2022-08-26T00:56:49.412Z,98740.13
2022-08-26T00:59:17.685Z,98726.03
2022-08-26T01:01:46.030Z,98734.69
2022-08-26T01:04:12.864Z,98727.59
2022-08-26T01:06:39.582Z,98736.72
2022-08-26T01:09:06.434Z,98734.69
2022-08-26T01:11:33.280Z,98733.69
2022-08-26T01:13:59.716Z,98736.56
2022-08-26T01:16:26.423Z,98738.06
2022-08-26T01:18:53.550Z,98728.81
2022-08-26T01:21:21.373Z,98738.78
2022-08-26T01:23:49.690Z,98731.19
2022-08-26T01:26:19.791Z,98730.69
2022-08-26T01:28:46.500Z,98734.06
2022-08-26T01:31:17.423Z,98734.41
2022-08-26T01:33:44.447Z,98728.59
2022-08-26T01:36:11.446Z,98735.94
2022-08-26T01:38:38.179Z,98719.69
2022-08-26T01:41:04.901Z,98730.56
2022-08-26T01:43:46.364Z,98733.41
2022-08-26T01:46:14.914Z,98731.06
2022-08-26T01:48:41.778Z,98735.31
2022-08-26T01:51:08.448Z,98733.31
2022-08-26T01:53:34.846Z,98732.44
2022-08-26T01:56:01.281Z,98730.41
2022-08-26T01:58:30.724Z,98733.41
2022-08-26T02:00:57.430Z,98731.88
2022-08-26T02:03:26.716Z,98731.72
2022-08-26T02:05:53.259Z,98729.88
2022-08-26T02:08:24.543Z,98730.34
2022-08-26T02:10:54.608Z,98737.22
2022-08-26T02:13:21.785Z,98734.06
2022-08-26T02:15:48.979Z,98734.09
2022-08-26T02:18:16.350Z,98737.44
2022-08-26T02:20:43.165Z,98728.19
2022-08-26T02:23:09.918Z,98728.00
2022-08-26T02:25:36.609Z,98726.34
2022-08-26T02:28:04.035Z,98726.88
2022-08-26T02:30:30.982Z,98726.69
2022-08-26T02:32:57.544Z,98730.91
2022-08-26T02:35:24.202Z,98724.69
2022-08-26T02:37:50.843Z,98723.88
2022-08-26T02:40:17.319Z,98721.56
2022-08-26T02:42:43.800Z,98720.19
2022-08-26T02:45:10.415Z,98718.03
2022-08-26T02:47:36.847Z,98723.41
2022-08-26T02:50:03.901Z,98716.03
2022-08-26T02:52:30.374Z,98715.03
2022-08-26T02:54:58.781Z,98711.69
2022-08-26T02:57:26.506Z,98713.53
2022-08-26T02:59:52.950Z,98708.66
2022-08-26T03:02:19.429Z,98704.94
2022-08-26T03:04:57.928Z,98707.47
2022-08-26T03:07:28.554Z,98703.78
2022-08-26T03:09:55.318Z,98707.66
2022-08-26T03:12:22.245Z,98708.31
2022-08-26T03:14:48.697Z,98708.31
2022-08-26T03:17:15.240Z,98705.63
2022-08-26T03:19:41.694Z,98706.97
2022-08-26T03:22:08.126Z,98702.59
2022-08-26T03:24:34.812Z,98710.00
2022-08-26T03:27:01.304Z,98707.00
2022-08-26T03:29:32.932Z,98720.06
2022-08-26T03:32:00.194Z,98715.22
2022-08-26T03:34:26.613Z,98718.72
2022-08-26T03:36:54.446Z,98718.72
2022-08-26T03:39:21.946Z,98711.69
2022-08-26T03:41:48.364Z,98718.72
2022-08-26T03:44:14.987Z,98710.00
2022-08-26T03:46:41.470Z,98706.78
2022-08-26T03:49:10.527Z,98705.44
2022-08-26T03:51:38.842Z,98705.00
2022-08-26T03:54:05.956Z,98708.84
2022-08-26T03:56:35.830Z,98709.34
2022-08-26T03:59:02.273Z,98711.53
2022-08-26T04:01:29.484Z,98711.63
2022-08-26T04:03:57.397Z,98709.00
2022-08-26T04:06:26.724Z,98713.38
2022-08-26T04:08:53.279Z,98717.22
2022-08-26T04:11:19.956Z,98714.38
2022-08-26T04:13:46.848Z,98709.34
2022-08-26T04:16:14.295Z,98715.16
2022-08-26T04:18:46.453Z,98705.94
2022-08-26T04:21:13.670Z,98707.34
2022-08-26T04:23:46.875Z,98702.97
2022-08-26T04:26:14.397Z,98705.00
2022-08-26T04:28:40.989Z,98703.66
2022-08-26T04:31:07.717Z,98709.00
2022-08-26T04:33:34.152Z,98710.00
2022-08-26T04:36:08.417Z,98704.47
2022-08-26T04:38:35.108Z,98712.69
2022-08-26T04:41:01.805Z,98721.41
2022-08-26T04:43:32.563Z,98717.38
2022-08-26T04:45:59.382Z,98714.88
2022-08-26T04:48:26.110Z,98722.44
2022-08-26T04:50:53.103Z,98712.19
2022-08-26T04:53:22.501Z,98713.19
2022-08-26T04:55:51.570Z,98712.69
2022-08-26T04:58:21.986Z,98712.00
2022-08-26T05:00:48.376Z,98709.97
2022-08-26T05:03:15.809Z,98717.88
2022-08-26T05:05:43.273Z,98721.91
2022-08-26T05:08:09.931Z,98721.78
2022-08-26T05:10:38.008Z,98725.97
2022-08-26T05:13:05.098Z,98715.06
2022-08-26T05:15:37.955Z,98717.03
2022-08-26T05:18:04.558Z,98713.69
2022-08-26T05:20:31.086Z,98719.75
2022-08-26T05:22:57.487Z,98714.00
2022-08-26T05:25:23.900Z,98717.69
2022-08-26T05:27:53.991Z,98727.41
2022-08-26T05:30:21.053Z,98723.38
2022-08-26T05:32:47.461Z,98717.31
2022-08-26T05:35:15.102Z,98727.53
2022-08-26T05:37:42.427Z,98724.97
2022-08-26T05:40:08.932Z,98724.97
2022-08-26T05:42:37.547Z,98720.28
2022-08-26T05:45:03.996Z,98732.19
2022-08-26T05:47:30.579Z,98725.97
2022-08-26T05:49:57.120Z,98729.34
2022-08-26T05:52:25.880Z,98723.94
2022-08-26T05:54:52.559Z,98726.31
2022-08-26T05:57:19.056Z,98735.53
2022-08-26T05:59:49.629Z,98727.59
2022-08-26T06:02:16.228Z,98727.91
2022-08-26T06:04:43.705Z,98728.56
2022-08-26T06:07:13.548Z,98732.88
2022-08-26T06:09:40.259Z,98727.78
2022-08-26T06:12:09.302Z,98727.44
2022-08-26T06:14:36.013Z,98738.31
2022-08-26T06:17:02.532Z,98736.44
2022-08-26T06:19:32.701Z,98729.34
2022-08-26T06:22:00.925Z,98729.00
2022-08-26T06:24:27.583Z,98740.41
2022-08-26T06:26:54.173Z,98737.06
2022-08-26T06:29:24.726Z,98726.19
2022-08-26T06:31:51.233Z,98732.03
2022-08-26T06:34:18.259Z,98730.66
2022-08-26T06:36:44.693Z,98727.53
2022-08-26T06:39:11.088Z,98729.19
2022-08-26T06:41:41.441Z,98729.75
2022-08-26T06:44:09.824Z,98729.22
2022-08-26T06:46:36.361Z,98726.16
2022-08-26T06:49:02.849Z,98722.63
2022-08-26T06:51:29.254Z,98720.88
2022-08-26T06:53:55.697Z,98730.25
2022-08-26T06:56:22.112Z,98729.50
2022-08-26T06:58:48.560Z,98724.84
2022-08-26T07:01:15.077Z,98727.47
2022-08-26T07:03:41.685Z,98724.97
2022-08-26T07:06:08.196Z,98732.00
2022-08-26T07:08:34.613Z,98729.22
2022-08-26T07:11:01.167Z,98726.28
2022-08-26T07:13:30.498Z,98728.72
2022-08-26T07:15:57.539Z,98725.09
2022-08-26T07:18:29.475Z,98724.34
2022-08-26T07:20:55.850Z,98719.03
2022-08-26T07:23:22.604Z,98718.94
2022-08-26T07:25:49.188Z,98714.13
2022-08-26T07:28:15.661Z,98726.38
2022-08-26T07:30:42.152Z,98721.94
2022-08-26T07:33:08.993Z,98721.59
2022-08-26T07:35:37.349Z,98713.78
2022-08-26T07:38:03.794Z,98715.09
2022-08-26T07:40:30.450Z,98711.66
2022-08-26T07:42:56.923Z,98710.84
2022-08-26T07:45:23.568Z,98713.22
2022-08-26T07:47:49.972Z,98712.81
2022-08-26T07:50:16.306Z,98716.44
2022-08-26T07:52:42.688Z,98714.16
2022-08-26T07:55:09.103Z,98706.06
2022-08-26T07:57:35.522Z,98713.69
2022-08-26T08:00:06.418Z,98706.44
2022-08-26T08:02:32.900Z,98705.31
2022-08-26T08:05:01.043Z,98703.47
2022-08-26T08:07:44.286Z,98708.66
2022-08-26T08:10:11.871Z,98707.44
2022-08-26T08:12:40.162Z,98708.75
2022-08-26T08:15:07.526Z,98711.81
2022-08-26T08:17:34.456Z,98708.09
2022-08-26T08:20:02.246Z,98706.69
2022-08-26T08:22:30.872Z,98705.81
2022-08-26T08:24:57.609Z,98702.91
2022-08-26T08:27:24.443Z,98711.06
2022-08-26T08:29:50.879Z,98705.34
2022-08-26T08:32:18.994Z,98708.75
2022-08-26T08:34:45.493Z,98704.78
2022-08-26T08:37:11.995Z,98706.38
2022-08-26T08:39:38.894Z,98708.44
2022-08-26T08:42:06.594Z,98704.72
2022-08-26T08:44:33.248Z,98704.03
2022-08-26T08:46:59.706Z,98696.69
2022-08-26T08:49:26.134Z,98698.75
2022-08-26T08:51:53.114Z,98694.31
2022-08-26T08:54:22.031Z,98705.16
2022-08-26T08:56:49.016Z,98695.66
2022-08-26T08:59:16.302Z,98689.63
2022-08-26T09:01:43.095Z,98692.13
2022-08-26T09:04:09.664Z,98696.03
2022-08-26T09:06:37.422Z,98690.00
2022-08-26T09:09:07.729Z,98696.03
2022-08-26T09:11:34.806Z,98687.13
2022-08-26T09:14:01.527Z,98688.91
2022-08-26T09:16:28.411Z,98689.31
2022-08-26T09:18:57.254Z,98691.94
2022-08-26T09:21:25.290Z,98695.97
2022-08-26T09:23:52.034Z,98684.69
2022-08-26T09:26:19.507Z,98690.59
2022-08-26T09:28:46.096Z,98684.16
2022-08-26T09:31:13.666Z,98694.84
2022-08-26T09:33:40.334Z,98691.22
2022-08-26T09:36:07.822Z,98691.97
2022-08-26T09:38:36.852Z,98691.09
2022-08-26T09:41:05.146Z,98684.34
2022-08-26T09:43:31.750Z,98689.69
2022-08-26T09:45:59.812Z,98683.84
2022-08-26T09:48:26.348Z,98679.56
2022-08-26T09:50:53.564Z,98676.13
2022-08-26T09:53:21.127Z,98668.31
2022-08-26T09:55:55.136Z,98680.03
2022-08-26T09:58:21.706Z,98669.16
2022-08-26T10:00:48.267Z,98674.59
2022-08-26T10:03:17.336Z,98671.19
2022-08-26T10:05:44.320Z,98673.13
2022-08-26T10:08:10.858Z,98669.22
2022-08-26T10:10:38.635Z,98660.38
2022-08-26T10:13:06.588Z,98664.50
2022-08-26T10:15:33.057Z,98656.97
2022-08-26T10:17:59.596Z,98665.41
2022-08-26T10:20:26.341Z,98647.56
2022-08-26T10:22:53.073Z,98650.00
2022-08-26T10:25:20.060Z,98650.25
2022-08-26T10:27:51.075Z,98652.59
2022-08-26T10:30:19.765Z,98652.44
2022-08-26T10:32:46.401Z,98653.25
2022-08-26T10:35:12.867Z,98654.72
2022-08-26T10:37:39.339Z,98648.69
2022-08-26T10:40:05.734Z,98648.91
2022-08-26T10:42:32.216Z,98637.25
2022-08-26T10:44:58.861Z,98639.78
2022-08-26T10:47:25.310Z,98636.41
2022-08-26T10:49:51.727Z,98642.66
2022-08-26T10:52:18.158Z,98640.78
2022-08-26T10:54:44.677Z,98641.41
2022-08-26T10:57:11.126Z,98638.13
2022-08-26T10:59:37.481Z,98630.84
2022-08-26T11:02:04.087Z,98631.22
2022-08-26T11:04:31.277Z,98626.56
2022-08-26T11:07:01.432Z,98623.94
2022-08-26T11:09:28.797Z,98625.66
2022-08-26T11:11:55.406Z,98621.50
2022-08-26T11:14:29.041Z,98621.50
2022-08-26T11:16:56.822Z,98624.00
2022-08-26T11:19:24.581Z,98617.75
2022-08-26T11:21:51.041Z,98614.41
2022-08-26T11:24:17.524Z,98614.00
2022-08-26T11:26:55.314Z,98600.91
2022-08-26T11:29:22.263Z,98602.75
2022-08-26T11:31:48.683Z,98594.66
2022-08-26T11:34:15.330Z,98592.28
2022-08-26T11:36:42.184Z,98594.94
2022-08-26T11:39:08.576Z,98586.84
2022-08-26T11:41:36.322Z,98588.63
2022-08-26T11:44:04.009Z,98583.44
2022-08-26T11:46:31.285Z,98587.41
2022-08-26T11:48:58.580Z,98583.25
2022-08-26T11:51:25.144Z,98587.00
2022-08-26T11:53:51.565Z,98570.31
2022-08-26T11:56:17.993Z,98575.31
2022-08-26T11:58:48.020Z,98561.97
2022-08-26T12:01:14.433Z,98565.91
2022-08-26T12:03:43.817Z,98560.56
2022-08-26T12:06:10.884Z,98549.91
2022-08-26T12:08:40.724Z,98544.50
2022-08-26T12:11:07.405Z,98540.72
2022-08-26T12:13:34.563Z,98537.81
2022-08-26T12:16:01.176Z,98541.88
2022-08-26T12:18:28.751Z,98542.50
2022-08-26T12:20:56.616Z,98536.88
2022-08-26T12:23:23.072Z,98535.22
2022-08-26T12:25:50.373Z,98534.25
2022-08-26T12:28:17.592Z,98532.47
2022-08-26T12:30:46.086Z,98526.38
2022-08-26T12:33:22.694Z,98528.06
2022-08-26T12:35:54.202Z,98530.97
2022-08-26T12:38:22.736Z,98519.97
2022-08-26T12:40:49.208Z,98520.34
2022-08-26T12:43:16.318Z,98513.97
2022-08-26T12:45:42.779Z,98514.78
2022-08-26T12:48:09.385Z,98513.09
2022-08-26T12:50:35.985Z,98512.22
2022-08-26T12:53:02.440Z,98505.84
2022-08-26T12:55:28.849Z,98510.38
2022-08-26T12:57:55.608Z,98506.44
2022-08-26T13:00:22.026Z,98499.66
2022-08-26T13:02:54.959Z,98496.13
2022-08-26T13:05:21.454Z,98489.88
2022-08-26T13:07:48.428Z,98497.41
2022-08-26T13:10:14.885Z,98494.19
2022-08-26T13:12:41.488Z,98492.44
2022-08-26T13:15:07.919Z,98483.81
2022-08-26T13:17:34.390Z,98487.97
2022-08-26T13:20:03.785Z,98484.16
2022-08-26T13:22:31.037Z,98476.69
2022-08-26T13:24:57.502Z,98469.03
2022-08-26T13:27:24.004Z,98464.34
2022-08-26T13:29:50.428Z,98459.84
2022-08-26T13:32:17.373Z,98466.09
2022-08-26T13:34:47.127Z,98454.72
2022-08-26T13:37:17.091Z,98459.81
2022-08-26T13:39:43.524Z,98451.88
2022-08-26T13:42:10.166Z,98435.53
2022-08-26T13:44:36.779Z,98438.09
2022-08-26T13:47:03.532Z,98439.16
2022-08-26T13:49:29.990Z,98444.38
2022-08-26T13:51:56.463Z,98438.88
2022-08-26T13:54:23.161Z,98429.50
2022-08-26T13:56:49.568Z,98435.91
2022-08-26T13:59:16.107Z,98433.59
2022-08-26T14:01:42.620Z,98431.66
2022-08-26T14:04:09.089Z,98424.75
2022-08-26T14:06:35.560Z,98419.16
2022-08-26T14:09:02.349Z,98419.78
2022-08-26T14:11:28.929Z,98423.09
2022-08-26T14:14:01.240Z,98423.25
2022-08-26T14:16:27.990Z,98424.94
2022-08-26T14:18:54.533Z,98425.31
2022-08-26T14:21:20.983Z,98418.16
2022-08-26T14:23:47.630Z,98418.47
2022-08-26T14:26:28.242Z,98417.63
2022-08-26T14:28:56.025Z,98413.84
2022-08-26T14:31:22.544Z,98413.88
2022-08-26T14:33:49.059Z,98405.22
2022-08-26T14:36:15.760Z,98399.56
2022-08-26T14:38:42.264Z,98405.53
2022-08-26T14:41:08.713Z,98408.38
2022-08-26T14:43:35.459Z,98404.97
2022-08-26T14:46:01.952Z,98408.63
2022-08-26T14:48:28.488Z,98406.97
2022-08-26T14:50:54.925Z,98404.03
2022-08-26T14:53:21.455Z,98410.13
2022-08-26T14:55:47.891Z,98400.25
2022-08-26T14:58:14.556Z,98411.47
2022-08-26T15:00:41.244Z,98411.84
2022-08-26T15:03:07.785Z,98412.31
2022-08-26T15:05:34.498Z,98405.09
2022-08-26T15:08:01.032Z,98395.06
2022-08-26T15:10:27.490Z,98401.00
2022-08-26T15:12:54.095Z,98407.19
2022-08-26T15:15:20.541Z,98404.25
2022-08-26T15:17:47.088Z,98401.38
2022-08-26T15:20:16.213Z,98395.44
2022-08-26T15:22:42.685Z,98404.88
2022-08-26T15:25:09.803Z,98388.03
2022-08-26T15:27:36.415Z,98393.91
2022-08-26T15:30:02.871Z,98396.84
2022-08-26T15:32:29.347Z,98385.25
2022-08-26T15:34:55.972Z,98387.41
2022-08-26T15:37:22.444Z,98388.00
2022-08-26T15:39:48.950Z,98391.13
2022-08-26T15:42:15.496Z,98395.06
2022-08-26T15:44:41.936Z,98401.31
2022-08-26T15:47:08.387Z,98396.88
2022-08-26T15:49:35.314Z,98389.56
2022-08-26T15:52:03.458Z,98389.84
2022-08-26T15:54:31.755Z,98382.47
2022-08-26T15:56:58.304Z,98390.81
2022-08-26T15:59:24.801Z,98382.50
2022-08-26T16:01:51.351Z,98384.84
2022-08-26T16:04:18.118Z,98381.97
2022-08-26T16:06:44.545Z,98389.28
2022-08-26T16:09:11.033Z,98382.56
2022-08-26T16:11:37.478Z,98379.06
2022-08-26T16:14:03.955Z,98379.59
2022-08-26T16:16:30.453Z,98383.06
2022-08-26T16:18:57.136Z,98383.72
2022-08-26T16:21:23.571Z,98379.88
2022-08-26T16:23:50.013Z,98376.69
2022-08-26T16:26:16.658Z,98373.84
2022-08-26T16:28:43.652Z,98366.97
2022-08-26T16:31:10.342Z,98365.28
2022-08-26T16:33:37.102Z,98366.31
2022-08-26T16:36:03.597Z,98370.25
2022-08-26T16:38:30.541Z,98369.91
2022-08-26T16:40:57.224Z,98364.19
2022-08-26T16:43:23.657Z,98366.75
2022-08-26T16:45:50.078Z,98365.22
2022-08-26T16:48:16.813Z,98364.03
2022-08-26T16:50:43.284Z,98357.25
2022-08-26T16:55:41.714Z,98361.75
2022-08-26T16:58:08.250Z,98366.56
2022-08-26T17:00:34.813Z,98366.34
2022-08-26T17:03:01.348Z,98370.47
2022-08-26T17:05:27.850Z,98360.22
2022-08-26T17:07:54.341Z,98361.97
2022-08-26T17:10:20.965Z,98362.94
2022-08-26T17:12:47.413Z,98361.75
2022-08-26T17:15:13.867Z,98359.13
2022-08-26T17:17:40.343Z,98360.19
2022-08-26T17:20:06.762Z,98361.25
2022-08-26T17:22:34.759Z,98362.75
2022-08-26T17:25:01.521Z,98356.72
2022-08-26T17:27:27.943Z,98358.81
2022-08-26T17:29:54.402Z,98362.16
2022-08-26T17:32:20.874Z,98363.69
2022-08-26T17:34:47.311Z,98363.47
2022-08-26T17:37:13.759Z,98360.38
2022-08-26T17:39:40.421Z,98353.22
2022-08-26T17:42:06.878Z,98370.63
2022-08-26T17:44:33.317Z,98369.03
2022-08-26T17:47:00.060Z,98361.41
2022-08-26T17:49:26.593Z,98374.28
2022-08-26T17:51:53.009Z,98366.16
2022-08-26T17:54:19.436Z,98372.22
2022-08-26T17:56:45.892Z,98374.28
2022-08-26T17:59:12.559Z,98372.56
2022-08-26T18:01:39.560Z,98367.06
2022-08-26T18:04:06.027Z,98375.47
2022-08-26T18:06:32.651Z,98381.09
2022-08-26T18:08:59.339Z,98386.28
2022-08-26T18:11:25.759Z,98385.44
2022-08-26T18:13:52.160Z,98381.94
2022-08-26T18:16:18.793Z,98386.28
2022-08-26T18:18:45.290Z,98391.19
2022-08-26T18:21:11.708Z,98390.81
2022-08-26T18:23:38.177Z,98394.25
2022-08-26T18:26:04.585Z,98393.19
2022-08-26T18:28:31.164Z,98391.16
2022-08-26T18:30:58.928Z,98392.16
2022-08-26T18:33:25.445Z,98390.88
2022-08-26T18:35:51.966Z,98403.72
2022-08-26T18:38:18.854Z,98406.25
2022-08-26T18:40:45.880Z,98397.94
2022-08-26T18:43:12.267Z,98398.78
2022-08-26T18:45:38.904Z,98403.38
2022-08-26T18:48:05.331Z,98410.84
2022-08-26T18:50:32.104Z,98405.03
2022-08-26T18:52:58.929Z,98414.59
2022-08-26T18:55:25.408Z,98413.38
2022-08-26T18:57:51.903Z,98406.91
2022-08-26T19:00:18.412Z,98410.41
2022-08-26T19:02:50.509Z,98415.41
2022-08-26T19:05:19.016Z,98424.59
2022-08-26T19:07:48.001Z,98416.09
2022-08-26T19:10:14.847Z,98422.53
2022-08-26T19:12:41.416Z,98419.19
2022-08-26T19:15:08.166Z,98422.31
2022-08-26T19:17:34.597Z,98430.22
2022-08-26T19:20:01.418Z,98434.59
2022-08-26T19:22:29.243Z,98443.75
2022-08-26T19:24:56.272Z,98443.34
2022-08-26T19:27:23.947Z,98441.72
2022-08-26T19:29:50.813Z,98441.47
2022-08-26T19:32:17.705Z,98438.53
2022-08-26T19:34:44.640Z,98435.25
2022-08-26T19:37:11.489Z,98439.56
2022-08-26T19:39:39.332Z,98441.66
2022-08-26T19:42:06.341Z,98442.53
2022-08-26T19:44:33.148Z,98438.38
2022-08-26T19:47:00.079Z,98445.88
2022-08-26T19:49:27.093Z,98444.63
2022-08-26T19:51:53.883Z,98445.03
2022-08-26T19:54:21.687Z,98447.72
2022-08-26T19:56:49.827Z,98446.47
2022-08-26T19:59:16.900Z,98456.69
2022-08-26T20:01:43.684Z,98449.63
2022-08-26T20:04:13.085Z,98451.03
2022-08-26T20:06:39.930Z,98450.25
2022-08-26T20:09:09.090Z,98449.97
2022-08-26T20:11:36.812Z,98453.75
2022-08-26T20:14:03.739Z,98456.88
2022-08-26T20:16:30.558Z,98460.41
2022-08-26T20:18:57.685Z,98454.78
2022-08-26T20:21:24.455Z,98463.72
2022-08-26T20:23:52.370Z,98465.59
2022-08-26T20:26:19.379Z,98467.03
2022-08-26T20:28:46.702Z,98469.53
2022-08-26T20:31:18.265Z,98461.22
2022-08-26T20:33:46.541Z,98461.22
2022-08-26T20:36:13.537Z,98458.09
2022-08-26T20:38:40.143Z,98459.13
2022-08-26T20:41:06.937Z,98470.56
2022-08-26T20:43:33.903Z,98463.50
2022-08-26T20:46:02.561Z,98462.63
2022-08-26T20:48:34.935Z,98458.28
2022-08-26T20:51:01.434Z,98455.34
2022-08-26T20:53:28.505Z,98444.53
2022-08-26T20:55:58.005Z,98447.25
2022-08-26T20:58:24.734Z,98446.22
2022-08-26T21:00:51.549Z,98438.94
2022-08-26T21:03:19.054Z,98441.16
2022-08-26T21:05:46.705Z,98451.19
2022-08-26T21:08:13.303Z,98455.34
2022-08-26T21:10:39.992Z,98459.09
2022-08-26T21:13:06.570Z,98454.94
2022-08-26T21:15:33.192Z,98457.84
2022-08-26T21:17:59.928Z,98456.75
2022-08-26T21:20:27.650Z,98455.25
2022-08-26T21:22:54.141Z,98460.28
2022-08-26T21:25:20.886Z,98458.50
2022-08-26T21:27:47.443Z,98459.16
2022-08-26T21:30:14.027Z,98461.53
2022-08-26T21:32:40.982Z,98462.38
2022-08-26T21:35:07.683Z,98462.22
2022-08-26T21:37:34.492Z,98464.81
2022-08-26T21:40:01.187Z,98461.88
2022-08-26T21:42:27.735Z,98470.41
2022-08-26T21:44:54.264Z,98465.19
2022-08-26T21:47:21.183Z,98475.81
2022-08-26T21:49:47.806Z,98478.78
2022-08-26T21:52:14.398Z,98488.56
2022-08-26T21:54:49.448Z,98474.13
2022-08-26T21:57:16.885Z,98473.25
2022-08-26T21:59:43.568Z,98472.53
2022-08-26T22:02:10.947Z,98470.63
2022-08-26T22:04:37.604Z,98485.47
2022-08-26T22:07:04.423Z,98483.09
2022-08-26T22:09:31.890Z,98492.28
2022-08-26T22:12:05.868Z,98479.06
2022-08-26T22:14:32.708Z,98486.03
2022-08-26T22:16:59.317Z,98480.09
2022-08-26T22:19:26.883Z,98474.53
2022-08-26T22:21:53.453Z,98473.56
2022-08-26T22:24:20.002Z,98474.84
2022-08-26T22:26:46.499Z,98476.19
2022-08-26T22:29:13.037Z,98477.56
2022-08-26T22:31:39.508Z,98470.06
2022-08-26T22:34:06.083Z,98474.03
2022-08-26T22:36:33.073Z,98479.19
2022-08-26T22:38:59.544Z,98465.78
2022-08-26T22:41:26.097Z,98459.59
2022-08-26T22:43:52.637Z,98464.75
2022-08-26T22:46:19.171Z,98474.00
2022-08-26T22:48:45.729Z,98472.66
2022-08-26T22:51:16.782Z,98462.31
2022-08-26T22:53:43.380Z,98457.31
2022-08-26T22:56:09.843Z,98450.91
2022-08-26T22:58:36.870Z,98466.88
2022-08-26T23:01:03.440Z,98468.50
2022-08-26T23:03:30.568Z,98462.66
2022-08-26T23:05:57.106Z,98457.84
2022-08-26T23:08:23.625Z,98450.53
2022-08-26T23:10:53.441Z,98446.09
2022-08-26T23:13:20.120Z,98463.94
2022-08-26T23:15:46.585Z,98455.16
2022-08-26T23:18:13.636Z,98454.53
2022-08-26T23:20:40.608Z,98454.81
2022-08-26T23:23:08.238Z,98462.59
2022-08-26T23:25:34.736Z,98462.56
2022-08-26T23:28:01.984Z,98461.25
2022-08-26T23:30:28.466Z,98464.25
2022-08-26T23:32:55.038Z,98457.84
2022-08-26T23:35:21.616Z,98448.22
2022-08-26T23:37:50.080Z,98457.72
2022-08-26T23:40:17.144Z,98457.41
2022-08-26T23:42:43.967Z,98451.28
2022-08-26T23:45:10.563Z,98461.44
2022-08-26T23:47:37.112Z,98465.09
2022-08-26T23:50:04.143Z,98462.50
2022-08-26T23:52:33.054Z,98472.31
2022-08-26T23:54:59.653Z,98481.97
2022-08-26T23:57:28.791Z,98486.41
2022-08-26T23:59:55.309Z,98478.72
